sensor_id;sensor_type;location;lat;lon;timestamp;pressure;altitude;pressure_sealevel;temperature;humidity
39411;BME280;26579;43.238;23.124;2023-05-10T00:01:04;97367.28;;;11.51;86.54
39411;BME280;26579;43.238;23.124;2023-05-10T00:03:30;97359.13;;;11.33;87.07
39411;BME280;26579;43.238;23.124;2023-05-10T00:05:56;97366.22;;;11.42;87.52
39411;BME280;26579;43.238;23.124;2023-05-10T00:08:21;97344.78;;;11.27;87.89
39411;BME280;26579;43.238;23.124;2023-05-10T00:10:47;97355.09;;;11.29;87.97
39411;BME280;26579;43.238;23.124;2023-05-10T00:13:13;97360.66;;;11.36;88.06
39411;BME280;26579;43.238;23.124;2023-05-10T00:15:38;97353.31;;;11.29;88.50
39411;BME280;26579;43.238;23.124;2023-05-10T00:18:04;97360.66;;;11.36;88.69
39411;BME280;26579;43.238;23.124;2023-05-10T00:20:30;97360.06;;;11.32;88.63
39411;BME280;26579;43.238;23.124;2023-05-10T00:22:56;97331.28;;;11.22;88.39
39411;BME280;26579;43.238;23.124;2023-05-10T00:25:21;97351.88;;;11.37;87.79
39411;BME280;26579;43.238;23.124;2023-05-10T00:27:47;97342.19;;;11.27;87.56
39411;BME280;26579;43.238;23.124;2023-05-10T00:30:13;97350.22;;;11.36;87.62
39411;BME280;26579;43.238;23.124;2023-05-10T00:32:38;97334.13;;;11.30;86.86
39411;BME280;26579;43.238;23.124;2023-05-10T00:35:04;97337.31;;;11.34;86.29
39411;BME280;26579;43.238;23.124;2023-05-10T00:37:30;97329.72;;;11.31;87.63
39411;BME280;26579;43.238;23.124;2023-05-10T00:39:56;97343.81;;;11.40;87.99
39411;BME280;26579;43.238;23.124;2023-05-10T00:42:22;97326.78;;;11.36;88.10
39411;BME280;26579;43.238;23.124;2023-05-10T00:44:48;97320.09;;;11.43;87.51
39411;BME280;26579;43.238;23.124;2023-05-10T00:47:13;97325.56;;;11.40;87.23
39411;BME280;26579;43.238;23.124;2023-05-10T00:49:40;97314.94;;;11.31;87.18
39411;BME280;26579;43.238;23.124;2023-05-10T00:52:06;97327.25;;;11.29;87.55
39411;BME280;26579;43.238;23.124;2023-05-10T00:54:32;97314.22;;;11.29;87.79
39411;BME280;26579;43.238;23.124;2023-05-10T00:56:58;97311.88;;;11.26;87.54
39411;BME280;26579;43.238;23.124;2023-05-10T00:59:23;97324.28;;;11.34;87.90
39411;BME280;26579;43.238;23.124;2023-05-10T01:01:50;97327.84;;;11.33;87.78
39411;BME280;26579;43.238;23.124;2023-05-10T01:04:17;97323.59;;;11.32;88.00
39411;BME280;26579;43.238;23.124;2023-05-10T01:06:43;97313.97;;;11.32;87.69
39411;BME280;26579;43.238;23.124;2023-05-10T01:09:09;97329.25;;;11.37;86.51
39411;BME280;26579;43.238;23.124;2023-05-10T01:11:36;97323.69;;;11.42;86.74
39411;BME280;26579;43.238;23.124;2023-05-10T01:14:02;97318.94;;;11.47;86.08
39411;BME280;26579;43.238;23.124;2023-05-10T01:16:32;97318.69;;;11.50;86.17
39411;BME280;26579;43.238;23.124;2023-05-10T01:19:00;97314.66;;;11.46;86.20
39411;BME280;26579;43.238;23.124;2023-05-10T01:32:20;97311.13;;;11.47;86.06
39411;BME280;26579;43.238;23.124;2023-05-10T01:37:34;97305.19;;;11.45;85.96
39411;BME280;26579;43.238;23.124;2023-05-10T01:40:19;97296.78;;;11.41;86.21
39411;BME280;26579;43.238;23.124;2023-05-10T01:42:51;97293.94;;;11.44;85.69
39411;BME280;26579;43.238;23.124;2023-05-10T01:45:30;97291.69;;;11.40;86.26
39411;BME280;26579;43.238;23.124;2023-05-10T01:48:09;97297.00;;;11.49;86.09
39411;BME280;26579;43.238;23.124;2023-05-10T01:50:38;97283.97;;;11.49;85.40
39411;BME280;26579;43.238;23.124;2023-05-10T01:53:09;97302.91;;;11.51;85.55
39411;BME280;26579;43.238;23.124;2023-05-10T01:55:42;97298.31;;;11.55;86.06
39411;BME280;26579;43.238;23.124;2023-05-10T01:58:30;97297.94;;;11.48;86.45
39411;BME280;26579;43.238;23.124;2023-05-10T02:00:58;97297.84;;;11.50;86.54
39411;BME280;26579;43.238;23.124;2023-05-10T02:03:25;97292.16;;;11.45;86.92
39411;BME280;26579;43.238;23.124;2023-05-10T02:05:54;97293.53;;;11.49;87.26
39411;BME280;26579;43.238;23.124;2023-05-10T02:08:22;97294.28;;;11.40;87.44
39411;BME280;26579;43.238;23.124;2023-05-10T02:10:50;97302.56;;;11.45;87.22
39411;BME280;26579;43.238;23.124;2023-05-10T02:13:17;97295.47;;;11.47;86.99
39411;BME280;26579;43.238;23.124;2023-05-10T02:15:48;97288.97;;;11.41;87.35
39411;BME280;26579;43.238;23.124;2023-05-10T02:18:15;97293.34;;;11.41;87.61
39411;BME280;26579;43.238;23.124;2023-05-10T02:20:44;97262.34;;;11.26;87.71
39411;BME280;26579;43.238;23.124;2023-05-10T02:23:11;97281.97;;;11.30;88.62
39411;BME280;26579;43.238;23.124;2023-05-10T02:25:37;97274.31;;;11.29;88.47
39411;BME280;26579;43.238;23.124;2023-05-10T02:28:05;97280.13;;;11.21;88.87
39411;BME280;26579;43.238;23.124;2023-05-10T02:30:33;97280.13;;;11.21;89.12
39411;BME280;26579;43.238;23.124;2023-05-10T02:33:00;97280.94;;;11.22;88.93
39411;BME280;26579;43.238;23.124;2023-05-10T02:35:27;97275.38;;;11.26;88.49
39411;BME280;26579;43.238;23.124;2023-05-10T02:37:54;97251.47;;;11.10;89.22
39411;BME280;26579;43.238;23.124;2023-05-10T02:40:21;97268.97;;;11.19;89.32
39411;BME280;26579;43.238;23.124;2023-05-10T02:42:50;97259.66;;;11.05;90.23
39411;BME280;26579;43.238;23.124;2023-05-10T02:45:21;97274.19;;;11.19;89.81
39411;BME280;26579;43.238;23.124;2023-05-10T02:47:49;97273.94;;;11.22;90.01
39411;BME280;26579;43.238;23.124;2023-05-10T02:50:14;97268.16;;;11.19;89.78
39411;BME280;26579;43.238;23.124;2023-05-10T02:52:44;97267.91;;;11.22;89.53
39411;BME280;26579;43.238;23.124;2023-05-10T02:55:13;97270.97;;;11.27;89.42
39411;BME280;26579;43.238;23.124;2023-05-10T02:57:43;97279.16;;;11.22;89.85
39411;BME280;26579;43.238;23.124;2023-05-10T03:00:12;97265.06;;;11.14;90.54
39411;BME280;26579;43.238;23.124;2023-05-10T03:02:37;97267.09;;;11.21;89.78
39411;BME280;26579;43.238;23.124;2023-05-10T03:05:03;97269.69;;;11.21;89.97
39411;BME280;26579;43.238;23.124;2023-05-10T03:07:29;97270.41;;;11.23;89.87
39411;BME280;26579;43.238;23.124;2023-05-10T03:09:55;97255.25;;;11.17;89.88
39411;BME280;26579;43.238;23.124;2023-05-10T03:20:12;97265.63;;;11.28;89.49
39411;BME280;26579;43.238;23.124;2023-05-10T03:22:45;97265.44;;;11.20;89.75
39411;BME280;26579;43.238;23.124;2023-05-10T03:25:12;97264.13;;;11.26;89.89
39411;BME280;26579;43.238;23.124;2023-05-10T03:27:42;97274.56;;;11.26;90.09
39411;BME280;26579;43.238;23.124;2023-05-10T03:30:11;97258.47;;;11.09;90.84
39411;BME280;26579;43.238;23.124;2023-05-10T03:32:37;97257.88;;;11.06;91.14
39411;BME280;26579;43.238;23.124;2023-05-10T03:35:07;97265.44;;;11.09;91.04
39411;BME280;26579;43.238;23.124;2023-05-10T03:37:34;97268.53;;;11.14;91.36
39411;BME280;26579;43.238;23.124;2023-05-10T03:39:59;97255.25;;;11.17;90.13
39411;BME280;26579;43.238;23.124;2023-05-10T03:42:25;97254.53;;;11.15;89.84
39411;BME280;26579;43.238;23.124;2023-05-10T03:44:51;97264.13;;;11.26;89.26
39411;BME280;26579;43.238;23.124;2023-05-10T03:47:16;97261.38;;;11.27;89.25
39411;BME280;26579;43.238;23.124;2023-05-10T03:49:42;97263.28;;;11.25;89.24
39411;BME280;26579;43.238;23.124;2023-05-10T03:52:08;97271.47;;;11.21;90.32
39411;BME280;26579;43.238;23.124;2023-05-10T03:54:34;97272.19;;;11.23;89.40
39411;BME280;26579;43.238;23.124;2023-05-10T03:57:00;97257.16;;;11.15;89.54
39411;BME280;26579;43.238;23.124;2023-05-10T03:59:26;97271.34;;;11.22;89.84
39411;BME280;26579;43.238;23.124;2023-05-10T04:01:51;97274.78;;;11.23;89.36
39411;BME280;26579;43.238;23.124;2023-05-10T04:04:17;97271.13;;;11.14;89.83
39411;BME280;26579;43.238;23.124;2023-05-10T04:06:43;97270.78;;;11.07;90.80
39411;BME280;26579;43.238;23.124;2023-05-10T04:09:08;97275.63;;;11.01;91.39
39411;BME280;26579;43.238;23.124;2023-05-10T04:11:34;97268.06;;;10.86;91.90
39411;BME280;26579;43.238;23.124;2023-05-10T04:14:00;97275.88;;;10.86;92.12
39411;BME280;26579;43.238;23.124;2023-05-10T04:16:25;97273.63;;;10.82;93.00
39411;BME280;26579;43.238;23.124;2023-05-10T04:18:51;97279.06;;;10.79;93.29
39411;BME280;26579;43.238;23.124;2023-05-10T04:21:17;97266.19;;;10.66;94.00
39411;BME280;26579;43.238;23.124;2023-05-10T04:23:42;97271.63;;;10.63;94.16
39411;BME280;26579;43.238;23.124;2023-05-10T04:26:08;97276.13;;;10.61;95.01
39411;BME280;26579;43.238;23.124;2023-05-10T04:28:34;97283.22;;;10.70;95.20
39411;BME280;26579;43.238;23.124;2023-05-10T04:31:05;97287.03;;;10.77;94.96
39411;BME280;26579;43.238;23.124;2023-05-10T04:33:32;97289.50;;;10.79;94.28
39411;BME280;26579;43.238;23.124;2023-05-10T04:35:58;97275.28;;;10.72;94.68
39411;BME280;26579;43.238;23.124;2023-05-10T04:38:24;97283.69;;;10.75;94.68
39411;BME280;26579;43.238;23.124;2023-05-10T04:40:49;97266.66;;;10.60;94.50
39411;BME280;26579;43.238;23.124;2023-05-10T04:43:15;97284.88;;;10.71;94.54
39411;BME280;26579;43.238;23.124;2023-05-10T04:45:41;97264.78;;;10.62;94.32
39411;BME280;26579;43.238;23.124;2023-05-10T04:48:07;97282.53;;;10.79;93.94
39411;BME280;26579;43.238;23.124;2023-05-10T04:50:32;97280.03;;;10.78;94.33
39411;BME280;26579;43.238;23.124;2023-05-10T04:52:58;97266.91;;;10.79;93.86
39411;BME280;26579;43.238;23.124;2023-05-10T04:55:24;97266.41;;;10.85;93.90
39411;BME280;26579;43.238;23.124;2023-05-10T04:57:50;97261.81;;;10.89;94.49
39411;BME280;26579;43.238;23.124;2023-05-10T05:00:16;97281.56;;;10.92;94.59
39411;BME280;26579;43.238;23.124;2023-05-10T05:02:43;97275.06;;;10.97;93.41
39411;BME280;26579;43.238;23.124;2023-05-10T05:05:08;97281.66;;;11.13;92.50
39411;BME280;26579;43.238;23.124;2023-05-10T05:07:34;97272.06;;;11.02;91.58
39411;BME280;26579;43.238;23.124;2023-05-10T05:10:00;97276.59;;;11.00;91.85
39411;BME280;26579;43.238;23.124;2023-05-10T05:12:25;97284.41;;;11.00;92.21
39411;BME280;26579;43.238;23.124;2023-05-10T05:14:51;97292.81;;;11.03;92.68
39411;BME280;26579;43.238;23.124;2023-05-10T05:17:17;97285.25;;;11.00;92.31
39411;BME280;26579;43.238;23.124;2023-05-10T05:19:42;97271.84;;;10.94;91.81
39411;BME280;26579;43.238;23.124;2023-05-10T05:22:08;97283.56;;;10.99;92.50
39411;BME280;26579;43.238;23.124;2023-05-10T05:24:36;97272.31;;;10.87;91.79
39411;BME280;26579;43.238;23.124;2023-05-10T05:27:02;97272.81;;;10.81;92.62
39411;BME280;26579;43.238;23.124;2023-05-10T05:29:28;97286.66;;;10.82;92.97
39411;BME280;26579;43.238;23.124;2023-05-10T05:31:54;97287.03;;;10.77;93.00
39411;BME280;26579;43.238;23.124;2023-05-10T05:34:19;97290.09;;;10.71;93.23
39411;BME280;26579;43.238;23.124;2023-05-10T05:36:45;97287.00;;;10.55;93.36
39411;BME280;26579;43.238;23.124;2023-05-10T05:39:10;97289.25;;;10.48;94.61
39411;BME280;26579;43.238;23.124;2023-05-10T05:41:36;97284.97;;;10.36;95.27
39411;BME280;26579;43.238;23.124;2023-05-10T05:44:02;97296.47;;;10.45;95.24
39411;BME280;26579;43.238;23.124;2023-05-10T05:46:27;97298.84;;;10.48;95.08
39411;BME280;26579;43.238;23.124;2023-05-10T05:48:53;97296.59;;;10.54;95.00
39411;BME280;26579;43.238;23.124;2023-05-10T05:51:19;97301.91;;;10.64;94.27
39411;BME280;26579;43.238;23.124;2023-05-10T05:53:44;97303.22;;;10.70;94.04
39411;BME280;26579;43.238;23.124;2023-05-10T05:56:10;97290.91;;;10.72;93.96
39411;BME280;26579;43.238;23.124;2023-05-10T05:58:36;97297.91;;;10.82;94.07
39411;BME280;26579;43.238;23.124;2023-05-10T06:01:01;97302.06;;;10.85;93.42
39411;BME280;26579;43.238;23.124;2023-05-10T06:03:27;97299.66;;;10.93;93.04
39411;BME280;26579;43.238;23.124;2023-05-10T06:05:53;97292.47;;;10.97;92.94
39411;BME280;26579;43.238;23.124;2023-05-10T06:08:18;97304.78;;;11.06;91.57
39411;BME280;26579;43.238;23.124;2023-05-10T06:10:44;97298.84;;;11.04;91.85
39411;BME280;26579;43.238;23.124;2023-05-10T06:13:10;97307.81;;;11.11;90.72
39411;BME280;26579;43.238;23.124;2023-05-10T06:15:36;97308.06;;;11.08;89.81
39411;BME280;26579;43.238;23.124;2023-05-10T06:18:01;97303.00;;;11.06;90.12
39411;BME280;26579;43.238;23.124;2023-05-10T06:20:27;97310.31;;;11.13;90.34
39411;BME280;26579;43.238;23.124;2023-05-10T06:22:53;97307.63;;;11.14;89.80
39411;BME280;26579;43.238;23.124;2023-05-10T06:25:18;97314.72;;;11.23;88.73
39411;BME280;26579;43.238;23.124;2023-05-10T06:27:44;97306.06;;;11.23;87.98
39411;BME280;26579;43.238;23.124;2023-05-10T06:30:10;97305.69;;;11.16;89.10
39411;BME280;26579;43.238;23.124;2023-05-10T06:32:36;97316.50;;;11.23;88.99
39411;BME280;26579;43.238;23.124;2023-05-10T06:35:01;97324.53;;;11.20;89.78
39411;BME280;26579;43.238;23.124;2023-05-10T06:37:27;97316.25;;;11.26;89.86
39411;BME280;26579;43.238;23.124;2023-05-10T06:39:53;97292.91;;;11.13;88.96
39411;BME280;26579;43.238;23.124;2023-05-10T06:42:19;97334.00;;;11.32;89.57
39411;BME280;26579;43.238;23.124;2023-05-10T06:44:46;97327.00;;;11.32;89.51
39411;BME280;26579;43.238;23.124;2023-05-10T06:47:11;97325.22;;;11.33;90.40
39411;BME280;26579;43.238;23.124;2023-05-10T06:49:37;97330.34;;;11.35;89.57
39411;BME280;26579;43.238;23.124;2023-05-10T06:52:03;97329.13;;;11.39;89.64
39411;BME280;26579;43.238;23.124;2023-05-10T06:54:28;97317.56;;;11.31;89.80
39411;BME280;26579;43.238;23.124;2023-05-10T06:56:54;97321.56;;;11.36;89.17
39411;BME280;26579;43.238;23.124;2023-05-10T06:59:20;97332.22;;;11.44;88.58
39411;BME280;26579;43.238;23.124;2023-05-10T07:01:45;97313.25;;;11.30;88.89
39411;BME280;26579;43.238;23.124;2023-05-10T07:04:11;97325.00;;;11.25;89.42
39411;BME280;26579;43.238;23.124;2023-05-10T07:06:37;97329.03;;;11.29;89.26
39411;BME280;26579;43.238;23.124;2023-05-10T07:09:02;97316.50;;;11.23;89.93
39411;BME280;26579;43.238;23.124;2023-05-10T07:11:28;97326.28;;;11.30;90.28
39411;BME280;26579;43.238;23.124;2023-05-10T07:13:54;97327.59;;;11.36;89.99
39411;BME280;26579;43.238;23.124;2023-05-10T07:16:19;97327.25;;;11.29;88.65
39411;BME280;26579;43.238;23.124;2023-05-10T07:18:45;97333.06;;;11.33;89.12
39411;BME280;26579;43.238;23.124;2023-05-10T07:21:11;97324.75;;;11.39;89.40
39411;BME280;26579;43.238;23.124;2023-05-10T07:23:37;97336.22;;;11.48;88.96
39411;BME280;26579;43.238;23.124;2023-05-10T07:26:02;97333.84;;;11.45;88.25
39411;BME280;26579;43.238;23.124;2023-05-10T07:28:28;97320.00;;;11.44;89.16
39411;BME280;26579;43.238;23.124;2023-05-10T07:30:54;97326.03;;;11.45;88.91
39411;BME280;26579;43.238;23.124;2023-05-10T07:33:19;97328.28;;;11.49;87.79
39411;BME280;26579;43.238;23.124;2023-05-10T07:35:45;97331.34;;;11.54;88.75
39411;BME280;26579;43.238;23.124;2023-05-10T07:38:11;97325.56;;;11.51;87.81
39411;BME280;26579;43.238;23.124;2023-05-10T07:40:37;97325.56;;;11.51;88.22
39411;BME280;26579;43.238;23.124;2023-05-10T07:43:02;97336.69;;;11.53;88.79
39411;BME280;26579;43.238;23.124;2023-05-10T07:45:28;97340.47;;;11.60;88.33
39411;BME280;26579;43.238;23.124;2023-05-10T07:47:54;97338.22;;;11.55;87.84
39411;BME280;26579;43.238;23.124;2023-05-10T07:50:19;97342.63;;;11.55;88.41
39411;BME280;26579;43.238;23.124;2023-05-10T07:52:45;97323.91;;;11.50;88.12
39411;BME280;26579;43.238;23.124;2023-05-10T07:55:11;97331.47;;;11.53;88.25
39411;BME280;26579;43.238;23.124;2023-05-10T07:57:37;97335.00;;;11.63;87.78
39411;BME280;26579;43.238;23.124;2023-05-10T08:00:03;97340.69;;;11.68;87.84
39411;BME280;26579;43.238;23.124;2023-05-10T08:02:39;97343.88;;;11.72;88.16
39411;BME280;26579;43.238;23.124;2023-05-10T08:05:05;97334.88;;;11.65;88.05
39411;BME280;26579;43.238;23.124;2023-05-10T08:07:31;97346.88;;;11.67;88.15
39411;BME280;26579;43.238;23.124;2023-05-10T08:09:56;97341.50;;;11.69;88.95
39411;BME280;26579;43.238;23.124;2023-05-10T08:12:22;97317.47;;;11.65;88.33
39411;BME280;26579;43.238;23.124;2023-05-10T08:14:48;97344.44;;;11.87;87.46
39411;BME280;26579;43.238;23.124;2023-05-10T08:17:13;97331.50;;;11.96;87.37
39411;BME280;26579;43.238;23.124;2023-05-10T08:19:39;97330.13;;;12.13;86.83
39411;BME280;26579;43.238;23.124;2023-05-10T08:22:05;97344.78;;;12.26;85.88
39411;BME280;26579;43.238;23.124;2023-05-10T08:24:30;97344.38;;;12.30;85.79
39411;BME280;26579;43.238;23.124;2023-05-10T08:26:56;97356.00;;;12.37;85.01
39411;BME280;26579;43.238;23.124;2023-05-10T08:29:22;97350.63;;;12.39;84.27
39411;BME280;26579;43.238;23.124;2023-05-10T08:31:47;97342.38;;;12.34;83.56
39411;BME280;26579;43.238;23.124;2023-05-10T08:34:13;97347.75;;;12.42;83.47
39411;BME280;26579;43.238;23.124;2023-05-10T08:36:39;97353.44;;;12.47;82.33
39411;BME280;26579;43.238;23.124;2023-05-10T08:39:04;97348.22;;;12.47;82.11
39411;BME280;26579;43.238;23.124;2023-05-10T08:41:33;97325.94;;;12.43;81.34
39411;BME280;26579;43.238;23.124;2023-05-10T08:43:59;97338.94;;;12.54;81.21
39411;BME280;26579;43.238;23.124;2023-05-10T08:46:28;97357.00;;;12.67;80.04
39411;BME280;26579;43.238;23.124;2023-05-10T08:48:54;97353.78;;;12.75;79.21
39411;BME280;26579;43.238;23.124;2023-05-10T08:51:24;97355.16;;;12.79;78.79
39411;BME280;26579;43.238;23.124;2023-05-10T08:53:51;97352.47;;;12.90;78.60
39411;BME280;26579;43.238;23.124;2023-05-10T08:56:16;97355.06;;;12.90;78.46
39411;BME280;26579;43.238;23.124;2023-05-10T08:58:43;97352.50;;;13.00;79.26
39411;BME280;26579;43.238;23.124;2023-05-10T09:01:09;97345.00;;;13.06;79.40
39411;BME280;26579;43.238;23.124;2023-05-10T09:03:35;97341.59;;;13.16;79.34
39411;BME280;26579;43.238;23.124;2023-05-10T09:06:03;97345.72;;;13.18;78.90
39411;BME280;26579;43.238;23.124;2023-05-10T09:08:29;97345.06;;;13.26;78.81
39411;BME280;26579;43.238;23.124;2023-05-10T09:10:55;97343.16;;;13.28;77.82
39411;BME280;26579;43.238;23.124;2023-05-10T09:13:22;97342.63;;;13.34;78.49
39411;BME280;26579;43.238;23.124;2023-05-10T09:15:48;97337.66;;;13.31;78.84
39411;BME280;26579;43.238;23.124;2023-05-10T09:18:14;97337.22;;;13.26;77.10
39411;BME280;26579;43.238;23.124;2023-05-10T09:20:40;97339.41;;;13.21;77.51
39411;BME280;26579;43.238;23.124;2023-05-10T09:23:06;97347.91;;;13.13;78.57
39411;BME280;26579;43.238;23.124;2023-05-10T09:25:32;97348.53;;;13.05;80.08
39411;BME280;26579;43.238;23.124;2023-05-10T09:27:58;97347.25;;;12.90;79.35
39411;BME280;26579;43.238;23.124;2023-05-10T09:30:30;97341.34;;;12.67;79.83
39411;BME280;26579;43.238;23.124;2023-05-10T09:32:58;97336.31;;;12.54;81.48
39411;BME280;26579;43.238;23.124;2023-05-10T09:35:25;97329.44;;;12.53;81.09
39411;BME280;26579;43.238;23.124;2023-05-10T09:37:56;97343.31;;;12.75;81.95
39411;BME280;26579;43.238;23.124;2023-05-10T09:40:26;97339.22;;;12.82;81.08
39411;BME280;26579;43.238;23.124;2023-05-10T09:42:56;97341.09;;;12.70;80.44
39411;BME280;26579;43.238;23.124;2023-05-10T09:45:32;97342.16;;;12.67;80.57
39411;BME280;26579;43.238;23.124;2023-05-10T09:48:00;97348.22;;;12.68;80.44
39411;BME280;26579;43.238;23.124;2023-05-10T09:50:26;97334.78;;;12.73;80.07
39411;BME280;26579;43.238;23.124;2023-05-10T09:52:57;97329.56;;;12.73;78.36
39411;BME280;26579;43.238;23.124;2023-05-10T09:55:25;97332.50;;;12.58;79.35
39411;BME280;26579;43.238;23.124;2023-05-10T09:58:01;97330.66;;;12.49;79.62
39411;BME280;26579;43.238;23.124;2023-05-10T10:00:27;97331.53;;;12.38;80.55
39411;BME280;26579;43.238;23.124;2023-05-10T10:02:58;97330.72;;;12.38;80.35
39411;BME280;26579;43.238;23.124;2023-05-10T10:05:33;97325.22;;;12.41;80.47
39411;BME280;26579;43.238;23.124;2023-05-10T10:08:02;97310.28;;;12.43;79.88
39411;BME280;26579;43.238;23.124;2023-05-10T10:10:28;97324.28;;;12.63;80.23
39411;BME280;26579;43.238;23.124;2023-05-10T10:12:54;97319.28;;;12.81;81.35
39411;BME280;26579;43.238;23.124;2023-05-10T10:15:21;97304.72;;;12.88;81.68
39411;BME280;26579;43.238;23.124;2023-05-10T10:17:49;97307.44;;;13.07;80.51
39411;BME280;26579;43.238;23.124;2023-05-10T10:20:16;97303.63;;;13.21;80.09
39411;BME280;26579;43.238;23.124;2023-05-10T10:22:42;97301.44;;;13.26;80.06
39411;BME280;26579;43.238;23.124;2023-05-10T10:25:10;97298.72;;;13.38;78.80
39411;BME280;26579;43.238;23.124;2023-05-10T10:36:03;97302.53;;;13.74;76.10
39411;BME280;26579;43.238;23.124;2023-05-10T10:54:57;97283.78;;;13.98;76.09
39411;BME280;26579;43.238;23.124;2023-05-10T10:57:24;97297.72;;;14.08;75.55
39411;BME280;26579;43.238;23.124;2023-05-10T10:59:50;97306.53;;;14.17;75.39
39411;BME280;26579;43.238;23.124;2023-05-10T11:02:34;97304.28;;;14.22;74.99
39411;BME280;26579;43.238;23.124;2023-05-10T11:08:00;97309.53;;;14.22;76.11
39411;BME280;26579;43.238;23.124;2023-05-10T11:10:26;97309.53;;;14.22;75.71
39411;BME280;26579;43.238;23.124;2023-05-10T11:15:18;97307.47;;;14.16;76.17
39411;BME280;26579;43.238;23.124;2023-05-10T11:17:44;97295.75;;;14.10;76.74
39411;BME280;26579;43.238;23.124;2023-05-10T11:20:10;97307.47;;;14.16;77.29
39411;BME280;26579;43.238;23.124;2023-05-10T11:22:51;97304.31;;;14.12;77.03
39411;BME280;26579;43.238;23.124;2023-05-10T11:25:17;97297.69;;;14.18;74.72
39411;BME280;26579;43.238;23.124;2023-05-10T11:27:43;97304.72;;;14.17;74.84
39411;BME280;26579;43.238;23.124;2023-05-10T11:30:10;97302.66;;;14.21;75.50
39411;BME280;26579;43.238;23.124;2023-05-10T11:32:38;97310.38;;;14.22;74.46
39411;BME280;26579;43.238;23.124;2023-05-10T11:35:08;97301.69;;;14.12;74.71
39411;BME280;26579;43.238;23.124;2023-05-10T11:37:35;97299.78;;;14.14;74.73
39411;BME280;26579;43.238;23.124;2023-05-10T11:40:01;97309.00;;;14.18;74.36
39411;BME280;26579;43.238;23.124;2023-05-10T11:42:28;97297.97;;;14.15;73.85
39411;BME280;26579;43.238;23.124;2023-05-10T11:44:54;97295.34;;;14.15;74.31
39411;BME280;26579;43.238;23.124;2023-05-10T11:47:20;97288.72;;;14.11;73.42
39411;BME280;26579;43.238;23.124;2023-05-10T11:49:48;97294.66;;;14.13;74.15
39411;BME280;26579;43.238;23.124;2023-05-10T11:52:15;97289.00;;;14.08;73.24
39411;BME280;26579;43.238;23.124;2023-05-10T11:54:53;97284.22;;;14.03;73.62
39411;BME280;26579;43.238;23.124;2023-05-10T11:57:20;97290.53;;;14.00;75.46
39411;BME280;26579;43.238;23.124;2023-05-10T11:59:47;97294.81;;;14.01;73.88
39411;BME280;26579;43.238;23.124;2023-05-10T12:02:13;97291.50;;;14.09;73.58
39411;BME280;26579;43.238;23.124;2023-05-10T12:04:39;97297.72;;;14.08;73.83
39411;BME280;26579;43.238;23.124;2023-05-10T12:07:05;97295.75;;;14.10;73.94
39411;BME280;26579;43.238;23.124;2023-05-10T12:09:31;97293.31;;;14.09;74.57
39411;BME280;26579;43.238;23.124;2023-05-10T12:11:56;97288.59;;;14.12;73.59
39411;BME280;26579;43.238;23.124;2023-05-10T12:14:22;97289.44;;;14.13;73.92
39411;BME280;26579;43.238;23.124;2023-05-10T12:16:48;97285.59;;;14.17;72.98
39411;BME280;26579;43.238;23.124;2023-05-10T12:19:18;97274.13;;;14.18;71.81
39411;BME280;26579;43.238;23.124;2023-05-10T12:21:44;97283.22;;;14.23;71.71
39411;BME280;26579;43.238;23.124;2023-05-10T12:24:10;97283.91;;;14.25;71.87
39411;BME280;26579;43.238;23.124;2023-05-10T12:26:36;97289.66;;;14.39;71.78
39411;BME280;26579;43.238;23.124;2023-05-10T12:29:13;97273.69;;;14.32;72.20
39411;BME280;26579;43.238;23.124;2023-05-10T12:31:52;97280.97;;;14.48;71.70
39411;BME280;26579;43.238;23.124;2023-05-10T12:34:34;97272.28;;;14.47;72.13
39411;BME280;26579;43.238;23.124;2023-05-10T12:37:01;97260.81;;;14.48;71.22
39411;BME280;26579;43.238;23.124;2023-05-10T12:39:38;97259.16;;;14.67;71.63
39411;BME280;26579;43.238;23.124;2023-05-10T12:42:04;97255.97;;;14.73;70.49
39411;BME280;26579;43.238;23.124;2023-05-10T12:44:30;97250.97;;;14.80;71.28
39411;BME280;26579;43.238;23.124;2023-05-10T12:46:55;97246.81;;;14.87;70.09
39411;BME280;26579;43.238;23.124;2023-05-10T12:49:21;97240.72;;;14.86;70.79
39411;BME280;26579;43.238;23.124;2023-05-10T12:51:47;97247.75;;;14.96;70.14
39411;BME280;26579;43.238;23.124;2023-05-10T12:54:12;97237.16;;;14.87;70.15
39411;BME280;26579;43.238;23.124;2023-05-10T12:56:38;97242.91;;;14.91;69.88
39411;BME280;26579;43.238;23.124;2023-05-10T12:59:04;97235.22;;;14.89;71.34
39411;BME280;26579;43.238;23.124;2023-05-10T13:01:29;97232.66;;;14.98;71.78
39411;BME280;26579;43.238;23.124;2023-05-10T13:03:55;97237.25;;;14.96;71.64
39411;BME280;26579;43.238;23.124;2023-05-10T13:06:21;97238.75;;;14.98;71.55
39411;BME280;26579;43.238;23.124;2023-05-10T13:08:47;97226.38;;;14.90;72.36
39411;BME280;26579;43.238;23.124;2023-05-10T13:11:12;97224.16;;;14.86;70.41
39411;BME280;26579;43.238;23.124;2023-05-10T13:13:38;97232.66;;;14.98;70.30
39411;BME280;26579;43.238;23.124;2023-05-10T13:16:04;97228.13;;;15.00;69.86
39411;BME280;26579;43.238;23.124;2023-05-10T13:18:30;97235.97;;;15.00;70.19
39411;BME280;26579;43.238;23.124;2023-05-10T13:20:55;97236.91;;;15.08;70.47
39411;BME280;26579;43.238;23.124;2023-05-10T13:23:21;97225.97;;;15.13;70.55
39411;BME280;26579;43.238;23.124;2023-05-10T13:25:47;97226.03;;;15.21;69.79
39411;BME280;26579;43.238;23.124;2023-05-10T13:28:12;97215.56;;;15.21;69.51
39411;BME280;26579;43.238;23.124;2023-05-10T13:30:38;97217.22;;;15.22;69.25
39411;BME280;26579;43.238;23.124;2023-05-10T13:33:04;97214.22;;;15.17;69.68
39411;BME280;26579;43.238;23.124;2023-05-10T13:35:29;97210.78;;;15.16;69.18
39411;BME280;26579;43.238;23.124;2023-05-10T13:37:55;97214.22;;;15.17;69.47
39411;BME280;26579;43.238;23.124;2023-05-10T13:40:21;97212.41;;;15.17;69.08